createdAt,value
2018-04-19T00:01:07.721Z,14.10
2018-04-19T00:03:39.420Z,13.80
2018-04-19T00:06:11.837Z,11.90
2018-04-19T00:08:44.912Z,14.13
2018-04-19T00:11:17.354Z,12.60
2018-04-19T00:16:15.688Z,14.50
2018-04-19T00:18:48.132Z,13.43
2018-04-19T00:21:20.426Z,13.37
2018-04-19T00:26:29.594Z,14.73
2018-04-19T00:29:02.016Z,14.32
2018-04-19T00:34:10.967Z,13.70
2018-04-19T00:36:43.118Z,11.20
2018-04-19T00:39:14.565Z,11.10
2018-04-19T00:41:47.620Z,11.40
2018-04-19T00:44:19.243Z,11.10
2018-04-19T00:46:48.328Z,12.40
2018-04-19T00:49:17.983Z,12.00
2018-04-19T00:51:47.045Z,11.83
2018-04-19T00:54:17.039Z,11.00
2018-04-19T00:56:46.089Z,11.93
2018-04-19T00:59:15.126Z,12.80
2018-04-19T01:01:44.179Z,12.00
2018-04-19T01:04:13.254Z,10.50
2018-04-19T01:06:49.370Z,13.50
2018-04-19T01:09:20.219Z,12.90
2018-04-19T01:11:50.737Z,13.60
2018-04-19T01:14:19.790Z,11.50
2018-04-19T01:16:49.570Z,10.63
2018-04-19T01:19:18.612Z,10.07
2018-04-19T01:21:48.458Z,11.33
2018-04-19T01:24:17.504Z,10.10
2018-04-19T01:26:47.516Z,12.52
2018-04-19T01:29:16.584Z,10.47
2018-04-19T01:31:46.215Z,10.73
2018-04-19T01:34:15.250Z,11.20
2018-04-19T01:36:44.423Z,12.90
2018-04-19T01:39:13.496Z,12.40
2018-04-19T01:41:43.579Z,11.93
2018-04-19T01:44:12.969Z,11.30
2018-04-19T01:46:41.998Z,12.43
2018-04-19T01:49:19.492Z,10.13
2018-04-19T01:51:49.245Z,12.40
2018-04-19T01:54:18.245Z,13.05
2018-04-19T01:56:47.731Z,12.23
2018-04-19T01:59:16.789Z,12.33
2018-04-19T02:01:46.262Z,11.87
2018-04-19T02:04:15.299Z,11.63
2018-04-19T02:06:47.437Z,13.20
2018-04-19T02:09:16.497Z,13.93
2018-04-19T02:11:46.327Z,12.60
2018-04-19T02:14:15.381Z,12.37
2018-04-19T02:16:44.990Z,11.23
2018-04-19T02:19:14.066Z,12.90
2018-04-19T02:21:43.703Z,13.00
2018-04-19T02:24:12.768Z,13.00
2018-04-19T02:26:42.979Z,16.40
2018-04-19T02:29:12.355Z,12.40
2018-04-19T02:31:52.664Z,13.23
2018-04-19T02:34:21.705Z,14.90
2018-04-19T02:36:51.421Z,18.62
2018-04-19T02:39:20.442Z,16.27
2018-04-19T02:41:50.421Z,20.08
2018-04-19T02:44:19.451Z,18.70
2018-04-19T02:46:48.506Z,18.97
2018-04-19T02:49:17.582Z,15.60
2018-04-19T02:51:46.599Z,18.55
2018-04-19T02:54:15.653Z,16.60
2018-04-19T02:56:48.823Z,15.23
2018-04-19T02:59:19.572Z,14.90
2018-04-19T03:01:52.305Z,17.90
2018-04-19T03:04:23.935Z,19.20
2018-04-19T03:06:57.162Z,15.73
2018-04-19T03:09:30.499Z,13.97
2018-04-19T03:12:02.377Z,13.37
2018-04-19T03:14:34.089Z,13.33
2018-04-19T03:17:07.782Z,13.10
2018-04-19T03:19:40.161Z,13.10
2018-04-19T03:22:12.795Z,13.43
2018-04-19T03:27:21.837Z,15.05
2018-04-19T03:29:54.845Z,13.43
2018-04-19T03:32:28.952Z,13.10
2018-04-19T03:35:01.708Z,15.20
2018-04-19T03:37:35.209Z,14.70
2018-04-19T03:40:07.743Z,13.17
2018-04-19T03:42:40.093Z,12.60
2018-04-19T03:45:12.255Z,13.23
2018-04-19T03:47:45.436Z,12.73
2018-04-19T03:50:17.383Z,14.07
2018-04-19T03:55:36.118Z,16.87
2018-04-19T03:58:08.185Z,14.60
2018-04-19T04:00:42.231Z,14.20
2018-04-19T04:03:13.558Z,12.40
2018-04-19T04:05:44.715Z,13.60
2018-04-19T04:08:16.346Z,14.27
2018-04-19T04:10:49.874Z,13.20
2018-04-19T04:13:22.279Z,13.63
2018-04-19T04:15:56.180Z,13.37
2018-04-19T04:18:45.453Z,13.80
2018-04-19T04:21:23.020Z,13.30
2018-04-19T04:23:57.259Z,12.00
2018-04-19T04:29:05.821Z,15.90
2018-04-19T04:31:40.847Z,15.97
2018-04-19T04:34:13.148Z,14.40
2018-04-19T04:36:45.579Z,17.48
2018-04-19T04:39:17.993Z,13.50
2018-04-19T04:41:51.554Z,14.10
2018-04-19T04:44:24.049Z,12.77
2018-04-19T04:46:56.512Z,12.80
2018-04-19T04:52:05.303Z,15.10
2018-04-19T04:54:38.678Z,15.30
2018-04-19T04:57:10.868Z,14.30
2018-04-19T05:02:18.482Z,15.70
2018-04-19T05:07:27.848Z,15.60
2018-04-19T05:12:36.800Z,15.82
2018-04-19T05:15:08.899Z,13.80
2018-04-19T05:20:14.587Z,15.98
2018-04-19T05:22:44.407Z,13.33
2018-04-19T05:25:13.459Z,14.83
2018-04-19T05:30:18.636Z,16.05
2018-04-19T05:32:47.720Z,16.17
2018-04-19T05:35:17.313Z,14.20
2018-04-19T05:37:46.399Z,12.87
2018-04-19T05:40:15.901Z,14.00
2018-04-19T05:45:20.673Z,16.20
2018-04-19T05:47:49.732Z,16.27
2018-04-19T05:50:18.778Z,14.90
2018-04-19T05:52:48.618Z,13.00
2018-04-19T05:55:17.668Z,13.40
2018-04-19T06:00:22.403Z,14.98
2018-04-19T06:05:30.769Z,14.27
2018-04-19T06:08:00.136Z,13.70
2018-04-19T06:10:29.161Z,12.83
2018-04-19T06:12:58.233Z,11.93
2018-04-19T06:15:27.850Z,11.90
2018-04-19T06:18:00.139Z,11.33
2018-04-19T06:23:08.437Z,12.32
2018-04-19T06:25:40.796Z,11.77
2018-04-19T06:28:13.077Z,10.77
2018-04-19T06:30:44.244Z,10.53
2018-04-19T06:33:15.789Z,9.90
2018-04-19T06:35:48.256Z,9.80
2018-04-19T06:38:20.045Z,9.60
2018-04-19T06:40:52.261Z,9.17
2018-04-19T06:46:00.178Z,9.25
2018-04-19T06:48:31.795Z,8.83
2018-04-19T06:51:03.354Z,8.80
2018-04-19T06:53:36.579Z,8.10
2018-04-19T06:56:10.857Z,7.60
2018-04-19T06:58:41.821Z,6.77
2018-04-19T07:03:49.974Z,8.35
2018-04-19T07:06:22.100Z,8.13
2018-04-19T07:08:53.029Z,8.23
2018-04-19T07:14:02.139Z,7.28
2018-04-19T07:16:34.905Z,6.50
2018-04-19T07:21:44.351Z,6.70
2018-04-19T07:24:15.869Z,5.80
2018-04-19T07:26:47.921Z,6.07
2018-04-19T07:29:19.967Z,6.37
2018-04-19T07:31:52.516Z,6.90
2018-04-19T07:34:25.253Z,6.33
2018-04-19T07:36:57.527Z,6.77
2018-04-19T07:39:30.448Z,7.00
2018-04-19T07:42:02.524Z,6.43
2018-04-19T07:47:11.890Z,6.57
2018-04-19T07:49:45.542Z,6.35
2018-04-19T07:52:18.402Z,6.50
2018-04-19T07:54:51.185Z,6.00
2018-04-19T07:57:23.705Z,5.80
2018-04-19T07:59:56.625Z,5.60
2018-04-19T08:05:05.120Z,5.75
2018-04-19T08:07:38.572Z,6.50
2018-04-19T08:10:11.356Z,5.23
2018-04-19T08:15:21.156Z,5.10
2018-04-19T08:17:53.171Z,4.70
2018-04-19T08:23:02.201Z,4.85
2018-04-19T08:25:36.393Z,4.83
2018-04-19T08:28:09.698Z,4.27
2018-04-19T08:33:17.912Z,4.47
2018-04-19T08:38:27.282Z,4.73
2018-04-19T08:40:57.000Z,4.10
2018-04-19T08:46:01.841Z,4.00
2018-04-19T08:51:07.407Z,4.17
2018-04-19T08:53:36.466Z,4.50
2018-04-19T08:56:06.055Z,4.27
2018-04-19T08:58:35.089Z,4.70
2018-04-19T09:01:05.096Z,4.13
2018-04-19T09:03:34.993Z,4.20
2018-04-19T09:06:04.615Z,3.70
2018-04-19T09:08:33.661Z,3.93
2018-04-19T09:11:03.854Z,4.22
2018-04-19T09:13:32.957Z,3.87
2018-04-19T09:16:02.676Z,3.80
2018-04-19T09:18:31.736Z,3.62
2018-04-19T09:21:00.791Z,4.17
2018-04-19T09:23:29.873Z,3.20
2018-04-19T09:25:58.926Z,3.80
2018-04-19T09:28:28.498Z,3.50
2018-04-19T09:30:58.511Z,3.53
2018-04-19T09:33:28.201Z,3.60
2018-04-19T09:35:57.229Z,3.13
2018-04-19T09:38:27.313Z,3.17
2018-04-19T09:40:56.365Z,3.40
2018-04-19T09:46:01.446Z,3.15
2018-04-19T09:48:31.562Z,2.80
2018-04-19T09:51:00.611Z,3.33
2018-04-19T09:53:29.789Z,3.30
2018-04-19T09:55:59.335Z,3.07
2018-04-19T09:58:30.256Z,3.30
2018-04-19T10:01:04.741Z,2.80
2018-04-19T10:03:39.212Z,3.40
2018-04-19T10:06:08.266Z,2.77
2018-04-19T10:08:37.355Z,3.77
2018-04-19T10:11:06.506Z,3.28
2018-04-19T10:13:35.562Z,3.37
2018-04-19T10:16:05.578Z,2.60
2018-04-19T10:18:35.333Z,3.10
2018-04-19T10:21:04.370Z,2.90
2018-04-19T10:23:33.845Z,3.20
2018-04-19T10:26:02.908Z,3.00
2018-04-19T10:28:31.975Z,3.00
2018-04-19T10:31:01.427Z,2.77
2018-04-19T10:33:30.540Z,2.95
2018-04-19T10:35:59.631Z,2.90
2018-04-19T10:38:28.673Z,2.20
2018-04-19T10:40:58.054Z,2.90
2018-04-19T10:43:27.102Z,3.07
2018-04-19T10:45:57.041Z,2.87
2018-04-19T10:48:26.079Z,2.60
2018-04-19T10:50:55.151Z,2.90
2018-04-19T10:53:24.212Z,2.93
2018-04-19T10:55:53.313Z,2.80
2018-04-19T10:58:22.388Z,3.00
2018-04-19T11:00:52.472Z,2.83
2018-04-19T11:03:21.470Z,3.10
2018-04-19T11:05:51.010Z,3.17
2018-04-19T11:08:20.074Z,3.40
2018-04-19T11:10:49.124Z,2.50
2018-04-19T11:13:18.522Z,2.90
2018-04-19T11:15:47.619Z,2.83
2018-04-19T11:20:53.695Z,3.20
2018-04-19T11:23:22.733Z,3.20
2018-04-19T11:25:51.830Z,2.97
2018-04-19T11:28:20.887Z,3.40
2018-04-19T11:30:49.930Z,3.30
2018-04-19T11:33:19.585Z,3.67
2018-04-19T11:35:48.617Z,6.13
2018-04-19T11:38:22.860Z,6.53
2018-04-19T11:40:52.151Z,5.90
2018-04-19T11:43:21.210Z,5.20
2018-04-19T11:45:50.260Z,5.93
2018-04-19T11:50:55.734Z,6.47
2018-04-19T11:53:24.797Z,7.10
2018-04-19T11:55:54.018Z,7.12
2018-04-19T12:00:58.811Z,8.98
2018-04-19T12:06:03.538Z,8.00
2018-04-19T12:16:20.397Z,7.35
2018-04-19T12:18:49.531Z,7.03
2018-04-19T12:21:18.746Z,7.07
2018-04-19T12:23:48.314Z,6.63
2018-04-19T12:26:18.390Z,6.10
2018-04-19T12:28:47.435Z,6.50
2018-04-19T12:33:55.512Z,6.87
2018-04-19T12:36:25.715Z,6.70
2018-04-19T12:38:54.779Z,6.60
2018-04-19T12:41:23.814Z,8.40
2018-04-19T12:43:53.047Z,7.27
2018-04-19T12:46:22.080Z,7.40
2018-04-19T12:48:53.270Z,8.37
2018-04-19T12:51:22.716Z,8.40
2018-04-19T12:53:51.767Z,8.43
2018-04-19T12:56:20.824Z,7.70
2018-04-19T12:58:49.868Z,8.37
2018-04-19T13:01:18.930Z,8.47
2018-04-19T13:03:47.991Z,7.93
2018-04-19T13:06:18.254Z,8.37
2018-04-19T13:08:47.320Z,7.90
2018-04-19T13:11:16.379Z,7.17
2018-04-19T13:13:45.425Z,7.40
2018-04-19T13:16:14.481Z,7.80
2018-04-19T13:18:43.893Z,7.20
2018-04-19T13:21:13.013Z,8.30
2018-04-19T13:23:42.996Z,8.10
2018-04-19T13:26:12.425Z,6.40
2018-04-19T13:28:41.537Z,7.57
2018-04-19T13:31:10.719Z,7.80
2018-04-19T13:33:39.866Z,8.43
2018-04-19T13:36:08.968Z,9.10
2018-04-19T13:38:38.414Z,7.73
2018-04-19T13:41:07.551Z,6.70
2018-04-19T13:46:12.458Z,8.40
2018-04-19T13:48:42.430Z,9.05
2018-04-19T13:51:11.441Z,8.43
2018-04-19T13:56:21.178Z,8.80
2018-04-19T13:58:53.741Z,8.43
2018-04-19T14:01:27.048Z,8.00
2018-04-19T14:04:01.448Z,8.40
2018-04-19T14:06:34.309Z,8.10
2018-04-19T14:09:08.408Z,9.00
2018-04-19T14:11:41.269Z,8.53
2018-04-19T14:14:13.552Z,9.10
2018-04-19T14:16:45.997Z,7.80
2018-04-19T14:19:15.207Z,8.30
2018-04-19T14:21:44.238Z,8.13
2018-04-19T14:24:14.275Z,8.70
2018-04-19T14:29:19.688Z,7.55
2018-04-19T14:31:48.738Z,7.43
2018-04-19T14:34:17.878Z,6.73
2018-04-19T14:36:47.250Z,7.93
2018-04-19T14:39:16.322Z,8.50
2018-04-19T14:41:45.395Z,8.52
2018-04-19T14:44:15.202Z,7.70
2018-04-19T14:46:44.253Z,7.50
2018-04-19T14:49:13.407Z,7.20
2018-04-19T14:51:42.479Z,6.72
2018-04-19T14:54:11.460Z,6.73
2018-04-19T14:56:40.966Z,6.47
2018-04-19T14:59:10.134Z,6.83
2018-04-19T15:01:39.192Z,7.10
2018-04-19T15:04:08.511Z,6.23
2018-04-19T15:09:13.403Z,7.25
2018-04-19T15:14:18.772Z,6.97
2018-04-19T15:16:47.830Z,6.20
2018-04-19T15:19:16.877Z,6.70
2018-04-19T15:21:46.460Z,6.17
2018-04-19T15:24:15.494Z,6.10
2018-04-19T15:26:46.337Z,5.80
2018-04-19T15:29:15.386Z,4.57
2018-04-19T15:31:44.558Z,5.13
2018-04-19T15:34:13.630Z,4.43
2018-04-19T15:36:43.063Z,5.10
2018-04-19T15:39:12.118Z,5.40
2018-04-19T15:41:41.304Z,5.68
2018-04-19T15:46:46.592Z,4.80
2018-04-19T15:49:15.638Z,5.07
2018-04-19T15:51:44.694Z,4.53
2018-04-19T15:54:14.141Z,3.80
2018-04-19T15:56:43.185Z,4.27
2018-04-19T15:59:12.674Z,4.15
2018-04-19T16:01:41.727Z,3.80
2018-04-19T16:04:10.823Z,3.90
2018-04-19T16:06:40.316Z,4.60
2018-04-19T16:09:09.362Z,4.70
2018-04-19T16:11:38.635Z,4.63
2018-04-19T16:14:07.713Z,4.13
2018-04-19T16:16:36.892Z,4.82
2018-04-19T16:19:06.075Z,5.83
2018-04-19T16:21:42.132Z,4.70
2018-04-19T16:24:11.187Z,5.43
2018-04-19T16:29:16.836Z,4.90
2018-04-19T16:31:45.864Z,4.70
2018-04-19T16:36:51.023Z,4.90
2018-04-19T16:39:20.064Z,4.10
2018-04-19T16:41:49.114Z,4.23
2018-04-19T16:44:18.172Z,3.93
2018-04-19T16:46:47.868Z,4.23
2018-04-19T16:49:16.928Z,3.77
2018-04-19T16:51:45.984Z,3.63
2018-04-19T16:54:15.480Z,5.07
2018-04-19T16:56:44.524Z,5.43
2018-04-19T16:59:13.571Z,3.90
2018-04-19T17:01:43.021Z,3.20
2018-04-19T17:04:12.882Z,3.70
2018-04-19T17:06:41.921Z,3.43
2018-04-19T17:09:11.377Z,3.13
2018-04-19T17:11:40.417Z,3.53
2018-04-19T17:16:45.269Z,3.62
2018-04-19T17:19:14.540Z,3.30
2018-04-19T17:21:43.641Z,3.53
2018-04-19T17:26:50.537Z,3.30
2018-04-19T17:31:55.319Z,4.97
2018-04-19T17:34:24.590Z,3.63
2018-04-19T17:36:57.810Z,3.70
2018-04-19T17:39:27.390Z,4.67
2018-04-19T17:41:56.420Z,4.80
2018-04-19T17:47:01.189Z,5.05
2018-04-19T17:49:30.259Z,4.10
2018-04-19T17:51:59.308Z,3.93
2018-04-19T17:54:29.467Z,4.50
2018-04-19T17:56:58.521Z,4.70
2018-04-19T17:59:27.581Z,3.80
2018-04-19T18:01:56.739Z,3.80
2018-04-19T18:04:25.800Z,3.40
2018-04-19T18:06:54.858Z,3.70
2018-04-19T18:09:24.235Z,3.60
2018-04-19T18:11:53.294Z,3.63
2018-04-19T18:14:22.336Z,4.10
2018-04-19T18:16:53.074Z,3.47
2018-04-19T18:19:22.145Z,3.40
2018-04-19T18:21:51.198Z,3.30
2018-04-19T18:24:20.245Z,3.50
2018-04-19T18:26:49.321Z,3.80
2018-04-19T18:29:19.113Z,3.30
2018-04-19T18:31:48.134Z,3.67
2018-04-19T18:34:17.203Z,3.90
2018-04-19T18:36:46.284Z,3.13
2018-04-19T18:39:15.406Z,3.53
2018-04-19T18:41:44.430Z,3.20
2018-04-19T18:44:13.493Z,3.60
2018-04-19T18:46:42.531Z,3.93
2018-04-19T18:51:47.405Z,4.40
2018-04-19T18:54:16.465Z,4.50
2018-04-19T18:56:45.488Z,4.60
2018-04-19T18:59:15.483Z,4.13
2018-04-19T19:01:53.841Z,5.07
2018-04-19T19:09:34.538Z,3.80
2018-04-19T19:12:03.598Z,3.97
2018-04-19T19:14:35.368Z,3.20
2018-04-19T19:22:42.668Z,5.60
2018-04-19T19:25:12.083Z,4.97
2018-04-19T19:27:41.098Z,4.20
2018-04-19T19:30:10.245Z,4.27
2018-04-19T19:32:39.298Z,3.53
2018-04-19T19:35:08.354Z,4.60
2018-04-19T19:37:37.463Z,4.78
2018-04-19T19:40:06.499Z,4.50
2018-04-19T19:42:35.547Z,3.50
2018-04-19T19:45:04.674Z,3.80
2018-04-19T19:47:33.707Z,4.23
2018-04-19T19:50:03.095Z,4.30
2018-04-19T19:52:32.159Z,7.00
2018-04-19T19:55:01.304Z,5.10
2018-04-19T19:57:30.350Z,6.10
2018-04-19T19:59:59.570Z,4.40
2018-04-19T20:02:28.619Z,5.00
2018-04-19T20:04:57.829Z,4.30
2018-04-19T20:07:26.877Z,3.73
2018-04-19T20:09:55.949Z,4.37
2018-04-19T20:15:00.759Z,4.10
2018-04-19T20:17:29.820Z,4.63
2018-04-19T20:19:59.025Z,4.27
2018-04-19T20:22:28.093Z,8.10
2018-04-19T20:24:57.171Z,5.07
2018-04-19T20:27:26.337Z,5.37
2018-04-19T20:29:55.671Z,5.20
2018-04-19T20:32:24.751Z,5.33
2018-04-19T20:37:29.517Z,4.97
2018-04-19T20:39:59.502Z,5.60
2018-04-19T20:42:28.555Z,7.37
2018-04-19T20:44:57.607Z,10.43
2018-04-19T20:47:26.659Z,7.83
2018-04-19T20:52:31.475Z,6.25
2018-04-19T20:55:00.690Z,5.70
2018-04-19T20:57:29.725Z,5.67
2018-04-19T20:59:58.793Z,4.60
2018-04-19T21:02:27.970Z,5.37
2018-04-19T21:07:32.824Z,5.40
2018-04-19T21:10:01.868Z,5.00
2018-04-19T21:12:30.930Z,4.90
2018-04-19T21:15:00.008Z,5.40
2018-04-19T21:17:29.296Z,4.17
2018-04-19T21:19:58.349Z,5.50
2018-04-19T21:22:27.404Z,4.50
2018-04-19T21:24:56.526Z,4.60
2018-04-19T21:32:36.930Z,5.25
2018-04-19T21:37:41.683Z,5.30
2018-04-19T21:40:10.806Z,4.23
2018-04-19T21:42:39.892Z,4.80
2018-04-19T21:45:10.265Z,4.27
2018-04-19T21:47:39.365Z,5.50
2018-04-19T21:50:08.472Z,5.90
2018-04-19T21:52:37.518Z,5.90
2018-04-19T21:55:10.192Z,5.10
2018-04-19T21:57:39.226Z,5.23
2018-04-19T22:02:46.018Z,4.82
2018-04-19T22:05:15.110Z,5.60
2018-04-19T22:07:44.153Z,5.15
2018-04-19T22:10:13.189Z,5.57
2018-04-19T22:12:42.252Z,6.57
2018-04-19T22:15:12.258Z,5.87
2018-04-19T22:17:41.405Z,5.90
2018-04-19T22:20:11.373Z,6.20
2018-04-19T22:22:40.426Z,6.27
2018-04-19T22:25:09.506Z,5.43
2018-04-19T22:27:38.602Z,5.23
2018-04-19T22:30:07.652Z,5.37
2018-04-19T22:32:36.704Z,5.20
2018-04-19T22:35:05.884Z,5.97
2018-04-19T22:37:34.926Z,5.70
2018-04-19T22:40:04.098Z,5.70
2018-04-19T22:42:33.138Z,6.10
2018-04-19T22:45:02.244Z,4.90
2018-04-19T22:47:31.241Z,5.12
2018-04-19T22:50:00.424Z,5.77
2018-04-19T22:52:29.434Z,5.70
2018-04-19T22:54:58.469Z,6.00
2018-04-19T22:57:27.583Z,5.37
2018-04-19T22:59:56.713Z,5.80
2018-04-19T23:02:26.470Z,5.20
2018-04-19T23:07:31.373Z,6.62
2018-04-19T23:10:02.700Z,6.40
2018-04-19T23:12:31.746Z,5.97
2018-04-19T23:15:00.896Z,6.40
2018-04-19T23:17:29.948Z,6.30
2018-04-19T23:19:58.985Z,6.65
2018-04-19T23:22:35.714Z,5.93
2018-04-19T23:25:04.768Z,5.90
2018-04-19T23:27:33.816Z,6.40
2018-04-19T23:30:02.988Z,6.50
2018-04-19T23:32:32.053Z,5.87
2018-04-19T23:35:01.095Z,5.43
2018-04-19T23:37:30.156Z,6.13
2018-04-19T23:39:59.381Z,6.53
2018-04-19T23:42:28.421Z,6.70
2018-04-19T23:44:57.473Z,5.00
2018-04-19T23:47:26.607Z,7.00
2018-04-19T23:49:56.673Z,7.15
2018-04-19T23:52:25.803Z,6.53
2018-04-19T23:54:54.868Z,6.50
2018-04-19T23:59:59.640Z,6.90
